• Join FlightAware (Why Join?)
  • Login
  • US Flag 
Gobble Gobble! 
02:50PM EST


 

Airport Tracker/Info


-or-


 

Live Flight TrackerFlight Track Log ✈ SKW5414 ✈ 10-May-2013 ✈ KSFO - KRDM

Flight Track Log - Related Links

Times and Time Zones

All times are in EDT time to prevent confusion due to time zone crossing. See the SKW5414 flight status page for this flight to view local times or setup timezone preferences in your user account.

Time Position Orientation Groundspeed Altitude Reporting Facility
EDT Latitude Longitude Course Direction KTS MPH feet Rate Location/Type
01:30AM 37.6358 -122.3597 360° North 157 181 32,000  Level Oakland Center
01:31AM 37.6825 -122.3297 27° Northeast 195 224 2,500 -13,560 Descending Oakland Center
01:32AM 37.7444 -122.3472 347° North 231 266 4,500 2,160 Climbing Oakland Center
01:33AM 37.8142 -122.3744 343° North 257 296 6,900 2,280 Climbing Oakland Center
01:34AM 38.0380 -122.3833 North  Level FlightAware Approximate
01:34AM 37.8936 -122.3728 North 277 319 9,200  Level Oakland Center
01:35AM 38.1470 -122.3833 360° North  Level FlightAware Approximate
01:35AM 37.9761 -122.3689 North 296 341 11,300  Level Oakland Center
01:36AM 38.0642 -122.3644 North 318 366 13,300 1,860 Climbing Oakland Center
01:37AM 38.1542 -122.3589 North 324 373 15,100 1,860 Climbing Oakland Center
01:38AM 38.2653 -122.3503 North 334 384 17,100 1,620 Climbing Oakland Center
01:39AM 38.3600 -122.3450 North 341 392 18,400 1,320 Climbing Oakland Center
01:40AM 38.4567 -122.3386 North 348 400 19,900 1,260 Climbing Oakland Center
01:41AM 38.5544 -122.3325 North 352 405 21,000 1,080 Climbing Oakland Center
01:42AM 38.6544 -122.3272 North 359 413 22,100 1,080 Climbing Oakland Center
01:43AM 38.7444 -122.3225 North 364 419 23,200 1,080 Climbing Oakland Center
01:44AM 38.8672 -122.3144 North 366 421 24,400 1,020 Climbing Oakland Center
01:45AM 38.9706 -122.3089 North 368 423 25,300 840 Climbing Oakland Center
01:46AM 39.0739 -122.3019 North 370 426 26,100 660 Climbing Oakland Center
01:47AM 39.1794 -122.2800 North 378 435 26,700 600 Climbing Oakland Center
01:48AM 39.2867 -122.2569 North 385 443 27,400 540 Climbing Oakland Center
01:49AM 39.3947 -122.2347 North 391 450 27,900 480 Climbing Oakland Center
01:50AM 39.4892 -122.2142 10° North 392 451 28,400 540 Climbing Oakland Center
01:51AM 39.6206 -122.1872 North 398 458 29,100 540 Climbing Oakland Center
01:52AM 39.7300 -122.1639 North 398 458 29,500 420 Climbing Oakland Center
01:54AM 39.8397 -122.1406 North 401 461 30,000 420 Climbing Oakland Center
01:55AM 39.9492 -122.1175 North 402 463 30,400 300 Climbing Oakland Center
01:56AM 40.0589 -122.0928 10° North 405 466 30,700 480 Climbing Oakland Center
01:57AM 40.1700 -122.0667 10° North 413 475 31,400 600 Climbing Oakland Center
01:58AM 40.2778 -122.0456 North 401 461 32,000 240 Climbing Oakland Center
01:59AM 40.3864 -122.0236 North 399 459 32,000  Level Oakland Center
02:00AM 40.4972 -122.0006 North 405 466 32,000  Level Oakland Center
02:01AM 40.6094 -121.9764 North 409 471 32,000  Level Oakland Center
02:02AM 40.7206 -121.9514 10° North 408 470 32,000  Level Oakland Center
02:03AM 40.8553 -121.9244 North 409 471 32,000  Level Oakland Center
02:04AM 40.9656 -121.9008 North 405 466 32,000  Level Oakland Center
02:05AM 41.0753 -121.8758 10° North 401 461 32,000  Level Oakland Center
02:06AM 41.1639 -121.8603 North 400 460 32,000  Level Seattle Center
02:07AM 41.2744 -121.8375 North 402 463 32,000  Level Seattle Center
02:08AM 41.3828 -121.8119 10° North 397 457 32,000  Level Seattle Center
02:09AM 41.4928 -121.7886 North 399 459 32,000  Level Seattle Center
02:10AM 41.6017 -121.7631 10° North 400 460 32,000  Level Seattle Center
02:11AM 41.7103 -121.7392 North 397 457 32,000  Level Seattle Center
02:12AM 41.8194 -121.7142 10° North 397 457 32,000  Level Seattle Center
02:13AM 41.9281 -121.6900 North 399 459 32,000  Level Seattle Center
02:14AM 42.0389 -121.6636 10° North 399 459 32,000  Level Seattle Center
02:15AM 42.1439 -121.6414 North 399 459 32,000  Level Seattle Center
02:16AM 42.2747 -121.6106 10° North 402 463 32,000  Level Seattle Center
02:17AM 42.3842 -121.5853 10° North 402 463 32,000 -420 Level Seattle Center
02:18AM 42.4942 -121.5606 North 401 461 31,200 -1,020 Descending Seattle Center
02:19AM 42.6075 -121.5353 North 410 472 30,000 -1,320 Descending Seattle Center
02:20AM 42.7242 -121.5081 10° North 425 489 28,600 -1,440 Descending Seattle Center
02:21AM 42.8439 -121.4808 North 435 501 27,100 -1,500 Descending Seattle Center
02:22AM 42.9608 -121.4561 North 429 494 25,600 -1,620 Descending Seattle Center
02:23AM 43.0772 -121.4286 10° North 426 490 23,900 -1,800 Descending Seattle Center
02:24AM 43.1972 -121.4011 North 437 503 22,000 -1,920 Descending Seattle Center
02:25AM 43.3139 -121.3722 10° North 429 494 20,100 -1,920 Descending Seattle Center
02:26AM 43.4300 -121.3464 North 425 489 18,200 -1,740 Descending Seattle Center
02:27AM 43.5453 -121.3181 10° North 423 487 16,600 -1,800 Descending Seattle Center
02:28AM 43.6625 -121.2917 North 409 471 14,600 -1,440 Descending Seattle Center
02:29AM 43.7556 -121.2694 10° North 347 399 13,700 -720 Descending Seattle Center
02:30AM 43.8350 -121.2517 North 304 350 13,200 -900 Descending Seattle Center
02:31AM 43.9019 -121.2342 11° North 254 292 11,900 -1,260 Descending Seattle Center
02:32AM 43.9653 -121.2033 19° North 240 276 10,700 -960 Descending Seattle Center
02:33AM 44.0225 -121.1622 27° Northeast 232 267 10,000 -900 Descending Seattle Center
02:34AM 44.0783 -121.1236 26° Northeast 226 260 8,900 -1,260 Descending Seattle Center
02:35AM 44.1333 -121.0836 28° Northeast 226 260 7,500 -1,260 Descending Seattle Center
02:36AM 44.1817 -121.0939 351° North 214 246 6,400 -1,020 Descending Seattle Center
02:37AM 44.1753 -121.1667 263° West 204 235 5,500 -960 Descending Seattle Center
02:38AM 44.1919 -121.2161 295° West 172 198 4,500 -1,020 Descending Seattle Center